Time;durP1;ratioP1;P1;durP2;ratioP2;P2;SDS_P1;SDS_P2;PMS_P1;PMS_P2;Temp;Humidity;BMP_temperature;BMP_pressure;BME280_temperature;BME280_humidity;BME280_pressure;Samples;Min_cycle;Max_cycle;Signal;HPM_P1;HPM_P2
2023/06/04 00:01:13;;;;;;;8.18;5.10;;;;;;;;;;4976306;28;20582;-82
2023/06/04 00:03:42;;;;;;;7.93;5.35;;;;;;;;;;4977334;28;20121;-82
2023/06/04 00:06:09;;;;;;;5.97;4.80;;;;;;;;;;4992595;28;20054;-82
2023/06/04 00:08:36;;;;;;;7.38;4.72;;;;;;;;;;4976542;28;20087;-82
2023/06/04 00:11:03;;;;;;;7.93;5.05;;;;;;;;;;4992694;28;20477;-82
2023/06/04 00:13:30;;;;;;;6.43;4.75;;;;;;;;;;5008947;28;20051;-82
2023/06/04 00:15:57;;;;;;;4.75;4.20;;;;;;;;;;4992766;28;20514;-81
2023/06/04 00:18:23;;;;;;;7.10;4.45;;;;;;;;;;4976771;28;20054;-82
2023/06/04 00:20:50;;;;;;;7.00;4.60;;;;;;;;;;4976376;28;20467;-82
2023/06/04 00:23:17;;;;;;;7.45;4.28;;;;;;;;;;4976844;28;20160;-82
2023/06/04 00:25:44;;;;;;;7.07;4.85;;;;;;;;;;4993179;28;20514;-82
2023/06/04 00:28:11;;;;;;;8.70;5.32;;;;;;;;;;5008676;28;20050;-81
2023/06/04 00:30:37;;;;;;;7.55;4.22;;;;;;;;;;4992677;28;20108;-82
2023/06/04 00:33:04;;;;;;;5.78;3.97;;;;;;;;;;4993357;28;20101;-82
2023/06/04 00:38:18;;;;;;;8.90;6.03;;;;;;;;;;4952347;28;20062;-74
2023/06/04 00:40:45;;;;;;;6.88;4.20;;;;;;;;;;4968563;28;20163;-74
2023/06/04 00:43:13;;;;;;;4.72;3.65;;;;;;;;;;4954269;29;20055;-74
2023/06/04 00:45:40;;;;;;;8.10;4.30;;;;;;;;;;4952766;29;20094;-73
2023/06/04 00:48:07;;;;;;;5.00;4.30;;;;;;;;;;4952870;29;20055;-73
2023/06/04 00:50:35;;;;;;;6.95;3.85;;;;;;;;;;4952808;29;20063;-73
2023/06/04 00:53:02;;;;;;;5.75;4.18;;;;;;;;;;4937011;29;20058;-73
2023/06/04 00:55:29;;;;;;;5.82;4.45;;;;;;;;;;4952589;29;20062;-73
2023/06/04 00:57:56;;;;;;;5.60;4.15;;;;;;;;;;4952908;29;20130;-73
2023/06/04 01:00:23;;;;;;;6.15;4.10;;;;;;;;;;4952693;29;20059;-74
2023/06/04 01:02:51;;;;;;;6.07;4.32;;;;;;;;;;4952738;29;20067;-73
2023/06/04 01:05:36;;;;;;;5.90;4.63;;;;;;;;;;4952622;29;20055;-74
2023/06/04 01:08:04;;;;;;;6.20;4.78;;;;;;;;;;4952121;29;20090;-74
2023/06/04 01:10:31;;;;;;;7.50;4.55;;;;;;;;;;4952104;29;20059;-73
2023/06/04 01:12:57;;;;;;;7.13;4.70;;;;;;;;;;4952496;29;20500;-74
2023/06/04 01:15:24;;;;;;;6.25;4.90;;;;;;;;;;4952961;29;20058;-73
2023/06/04 01:17:57;;;;;;;7.72;5.60;;;;;;;;;;4952647;29;20105;-73
2023/06/04 01:20:37;;;;;;;9.35;5.65;;;;;;;;;;4952276;29;20413;-73
2023/06/04 01:23:04;;;;;;;7.22;5.35;;;;;;;;;;4952559;29;20055;-73
2023/06/04 01:25:37;;;;;;;8.48;4.93;;;;;;;;;;4952443;29;20055;-73
2023/06/04 01:28:04;;;;;;;;;;;;;;;;;;4952898;29;20106;-73
2023/06/04 01:30:33;;;;;;;8.00;5.30;;;;;;;;;;4952267;29;19922;-74
2023/06/04 01:33:00;;;;;;;7.18;5.20;;;;;;;;;;4936589;29;20055;-73
2023/06/04 01:35:28;;;;;;;6.65;5.65;;;;;;;;;;4968247;28;20060;-74
2023/06/04 01:37:55;;;;;;;8.15;5.07;;;;;;;;;;4952260;29;20062;-73
2023/06/04 01:40:22;;;;;;;7.75;5.97;;;;;;;;;;4936481;29;20226;-73
2023/06/04 01:42:49;;;;;;;8.88;5.65;;;;;;;;;;4936567;29;20119;-73
2023/06/04 01:45:16;;;;;;;8.43;6.15;;;;;;;;;;4952680;29;20263;-73
2023/06/04 01:47:43;;;;;;;8.38;5.68;;;;;;;;;;4954345;28;20090;-73
2023/06/04 01:50:10;;;;;;;11.07;5.97;;;;;;;;;;4956039;29;20099;-74
2023/06/04 01:52:37;;;;;;;7.00;5.72;;;;;;;;;;4956801;29;20066;-74
2023/06/04 01:55:05;;;;;;;8.32;5.43;;;;;;;;;;4962133;29;20055;-74
2023/06/04 01:57:32;;;;;;;9.07;5.32;;;;;;;;;;4962278;29;20055;-73
2023/06/04 01:59:58;;;;;;;6.63;5.40;;;;;;;;;;4962026;29;20087;-74
2023/06/04 02:02:25;;;;;;;5.70;4.75;;;;;;;;;;4960841;29;20066;-74
2023/06/04 02:04:52;;;;;;;6.97;5.57;;;;;;;;;;4956339;29;20067;-74
2023/06/04 02:07:20;;;;;;;8.95;4.72;;;;;;;;;;4956862;29;20125;-74
2023/06/04 02:09:47;;;;;;;6.20;4.60;;;;;;;;;;4955598;29;20534;-74
2023/06/04 02:12:15;;;;;;;6.85;4.75;;;;;;;;;;4955913;28;20066;-73
2023/06/04 02:14:42;;;;;;;5.45;4.68;;;;;;;;;;4939594;29;20103;-74
2023/06/04 02:17:12;;;;;;;11.57;4.93;;;;;;;;;;4955298;29;20063;-74
2023/06/04 02:19:44;;;;;;;5.60;4.57;;;;;;;;;;4955580;29;20125;-75
2023/06/04 02:22:12;;;;;;;6.97;4.35;;;;;;;;;;4955471;29;20091;-74
2023/06/04 02:24:42;;;;;;;4.88;4.30;;;;;;;;;;4955480;29;20093;-74
2023/06/04 02:27:09;;;;;;;5.53;4.00;;;;;;;;;;4955250;29;20098;-74
2023/06/04 02:29:37;;;;;;;7.30;4.05;;;;;;;;;;4955451;29;20110;-74
2023/06/04 02:32:04;;;;;;;3.83;3.30;;;;;;;;;;4955129;29;20094;-74
2023/06/04 02:34:31;;;;;;;6.38;3.75;;;;;;;;;;4939228;29;20106;-74
2023/06/04 02:36:58;;;;;;;6.38;3.97;;;;;;;;;;4954955;29;20073;-74
2023/06/04 02:39:25;;;;;;;5.13;3.22;;;;;;;;;;4955028;29;20110;-74
2023/06/04 02:41:52;;;;;;;5.95;3.70;;;;;;;;;;4954798;29;20071;-74
2023/06/04 02:44:18;;;;;;;5.47;3.55;;;;;;;;;;4955056;29;20107;-74
2023/06/04 02:46:45;;;;;;;6.63;3.65;;;;;;;;;;4954852;29;20567;-74
2023/06/04 02:49:13;;;;;;;4.93;3.47;;;;;;;;;;4955221;29;20471;-74
2023/06/04 02:51:40;;;;;;;5.38;3.97;;;;;;;;;;4954711;29;20055;-73
2023/06/04 02:54:07;;;;;;;5.78;2.95;;;;;;;;;;4970608;28;20083;-74
2023/06/04 02:56:36;;;;;;;4.53;3.53;;;;;;;;;;4970913;28;20078;-74
2023/06/04 02:59:03;;;;;;;4.03;2.90;;;;;;;;;;4954451;28;20102;-74
2023/06/04 03:01:30;;;;;;;7.72;3.97;;;;;;;;;;4970559;28;20184;-74
2023/06/04 03:03:57;;;;;;;6.43;3.85;;;;;;;;;;4954642;29;20048;-74
2023/06/04 03:06:24;;;;;;;4.45;3.65;;;;;;;;;;4954592;29;20059;-74
2023/06/04 03:08:51;;;;;;;3.55;3.25;;;;;;;;;;4954318;29;20055;-74
2023/06/04 03:11:21;;;;;;;5.13;3.20;;;;;;;;;;4970630;28;20051;-74
2023/06/04 03:13:48;;;;;;;4.20;3.08;;;;;;;;;;4954731;29;20496;-74
2023/06/04 03:16:15;;;;;;;3.60;2.72;;;;;;;;;;4970459;28;20550;-74
2023/06/04 03:18:43;;;;;;;6.13;3.45;;;;;;;;;;4958989;29;20059;-74
2023/06/04 03:21:13;;;;;;;4.55;3.10;;;;;;;;;;4954515;29;20079;-75
2023/06/04 03:23:40;;;;;;;3.88;2.33;;;;;;;;;;4954835;29;20466;-74
2023/06/04 03:26:07;;;;;;;5.90;3.67;;;;;;;;;;4954533;29;20094;-74
2023/06/04 03:28:34;;;;;;;4.28;2.90;;;;;;;;;;4954393;29;20106;-74
2023/06/04 03:31:02;;;;;;;4.32;2.45;;;;;;;;;;4970019;28;20114;-74
2023/06/04 03:33:29;;;;;;;2.95;2.65;;;;;;;;;;4954200;29;20142;-74
2023/06/04 03:35:58;;;;;;;6.13;2.55;;;;;;;;;;4953901;29;20135;-74
2023/06/04 03:38:25;;;;;;;7.07;2.72;;;;;;;;;;4954301;29;20059;-74
2023/06/04 03:40:52;;;;;;;7.22;3.17;;;;;;;;;;4953945;29;20066;-74
2023/06/04 03:43:20;;;;;;;3.42;2.03;;;;;;;;;;4954012;29;20578;-74
2023/06/04 03:45:47;;;;;;;5.40;2.22;;;;;;;;;;4969843;28;20043;-74
2023/06/04 03:48:14;;;;;;;3.53;2.50;;;;;;;;;;4953919;29;20051;-74
2023/06/04 03:50:41;;;;;;;3.95;2.60;;;;;;;;;;4938428;29;20075;-74
2023/06/04 03:53:08;;;;;;;4.85;2.55;;;;;;;;;;4954058;29;20500;-74
2023/06/04 03:55:34;;;;;;;6.40;3.25;;;;;;;;;;4953677;29;20071;-74
2023/06/04 03:58:02;;;;;;;4.50;2.53;;;;;;;;;;4953654;29;20055;-74
2023/06/04 04:00:29;;;;;;;4.00;2.40;;;;;;;;;;4969581;28;20508;-74
2023/06/04 04:02:56;;;;;;;3.72;2.45;;;;;;;;;;4953685;29;20054;-74
2023/06/04 04:05:23;;;;;;;5.68;2.92;;;;;;;;;;4953659;29;20051;-74
2023/06/04 04:07:50;;;;;;;4.57;2.85;;;;;;;;;;4953485;29;20086;-74
2023/06/04 04:10:16;;;;;;;4.00;2.45;;;;;;;;;;4952475;28;20055;-74
2023/06/04 04:12:43;;;;;;;6.30;2.80;;;;;;;;;;4953383;29;20055;-74
2023/06/04 04:15:10;;;;;;;3.67;2.60;;;;;;;;;;4953276;29;20051;-74
2023/06/04 04:17:37;;;;;;;4.07;2.80;;;;;;;;;;4953325;29;20058;-74
2023/06/04 04:20:05;;;;;;;4.05;3.20;;;;;;;;;;4953201;29;20051;-74
2023/06/04 04:22:32;;;;;;;5.18;2.40;;;;;;;;;;4957571;29;20401;-74
2023/06/04 04:25:01;;;;;;;3.58;2.42;;;;;;;;;;4953337;29;20055;-74
2023/06/04 04:27:30;;;;;;;5.78;2.40;;;;;;;;;;4953190;29;20118;-74
2023/06/04 04:30:00;;;;;;;5.78;3.47;;;;;;;;;;4952797;29;20055;-74
2023/06/04 04:32:27;;;;;;;4.82;2.72;;;;;;;;;;4952950;29;20150;-74
2023/06/04 04:34:54;;;;;;;6.15;2.53;;;;;;;;;;4953452;29;20062;-73
2023/06/04 04:37:22;;;;;;;3.08;2.25;;;;;;;;;;4952801;29;20055;-74
2023/06/04 04:39:51;;;;;;;3.85;2.30;;;;;;;;;;4952908;29;20059;-73
2023/06/04 04:42:19;;;;;;;3.05;2.63;;;;;;;;;;4952967;29;20161;-74
2023/06/04 04:44:48;;;;;;;3.47;2.20;;;;;;;;;;4952864;29;20130;-74
2023/06/04 04:47:15;;;;;;;3.17;2.53;;;;;;;;;;4952773;29;20055;-74
2023/06/04 04:49:42;;;;;;;3.55;2.47;;;;;;;;;;4952763;29;20496;-74
2023/06/04 04:52:09;;;;;;;6.40;2.75;;;;;;;;;;4936885;29;20055;-74
2023/06/04 04:54:35;;;;;;;3.97;2.28;;;;;;;;;;4954157;28;20043;-74
2023/06/04 04:57:02;;;;;;;4.63;2.08;;;;;;;;;;4952621;29;20063;-74
2023/06/04 04:59:39;;;;;;;2.88;2.03;;;;;;;;;;4953094;29;20058;-74
2023/06/04 05:02:06;;;;;;;5.47;2.95;;;;;;;;;;4952519;29;20083;-73
2023/06/04 05:04:33;;;;;;;4.10;2.22;;;;;;;;;;4952885;29;20052;-74
2023/06/04 05:07:00;;;;;;;5.68;2.72;;;;;;;;;;4952701;29;20055;-75
2023/06/04 05:09:27;;;;;;;2.58;2.00;;;;;;;;;;4968594;28;20066;-74
2023/06/04 05:11:53;;;;;;;5.28;2.47;;;;;;;;;;4952488;29;20050;-74
2023/06/04 05:14:20;;;;;;;2.03;1.83;;;;;;;;;;4952942;29;20059;-74
2023/06/04 05:16:48;;;;;;;4.15;1.80;;;;;;;;;;4952766;29;20308;-74
2023/06/04 05:19:16;;;;;;;3.70;2.20;;;;;;;;;;4952758;29;20419;-73
2023/06/04 05:21:44;;;;;;;3.83;2.00;;;;;;;;;;4953394;28;20223;-74
2023/06/04 05:24:10;;;;;;;3.35;2.25;;;;;;;;;;4956535;29;20059;-73
2023/06/04 05:26:39;;;;;;;3.28;2.40;;;;;;;;;;4956297;29;20063;-74
2023/06/04 05:29:07;;;;;;;3.35;2.38;;;;;;;;;;4956387;29;20110;-74
2023/06/04 05:31:34;;;;;;;4.15;2.67;;;;;;;;;;4940377;29;20055;-74
2023/06/04 05:34:04;;;;;;;5.13;2.55;;;;;;;;;;4940737;29;20059;-74
2023/06/04 05:36:31;;;;;;;3.83;2.40;;;;;;;;;;4955802;29;20062;-74
2023/06/04 05:38:59;;;;;;;6.95;2.35;;;;;;;;;;4956729;29;20502;-74
2023/06/04 05:41:27;;;;;;;5.22;2.75;;;;;;;;;;4956519;29;20083;-74
2023/06/04 05:43:54;;;;;;;4.35;2.60;;;;;;;;;;4956740;29;20516;-74
2023/06/04 05:46:21;;;;;;;4.28;2.40;;;;;;;;;;4956478;29;20110;-74
2023/06/04 05:48:49;;;;;;;4.50;2.25;;;;;;;;;;4956142;29;20138;-73
2023/06/04 05:51:15;;;;;;;3.13;2.13;;;;;;;;;;4955656;29;20427;-74
2023/06/04 05:53:42;;;;;;;3.67;2.60;;;;;;;;;;4955882;29;20138;-74
2023/06/04 05:56:09;;;;;;;3.83;2.20;;;;;;;;;;4955969;29;20102;-74
2023/06/04 05:58:36;;;;;;;3.63;2.80;;;;;;;;;;4956711;29;20051;-74
2023/06/04 06:01:03;;;;;;;4.15;2.22;;;;;;;;;;4955843;29;20419;-74
2023/06/04 06:03:33;;;;;;;3.78;2.45;;;;;;;;;;4955786;29;20431;-74
2023/06/04 06:06:01;;;;;;;2.90;2.20;;;;;;;;;;4957028;29;21531;-74
2023/06/04 06:08:28;;;;;;;3.92;2.03;;;;;;;;;;4955933;29;20054;-73
2023/06/04 06:10:55;;;;;;;3.97;2.30;;;;;;;;;;4955714;29;20051;-73
2023/06/04 06:13:22;;;;;;;4.25;2.40;;;;;;;;;;4955907;29;20051;-73
2023/06/04 06:15:49;;;;;;;7.75;2.40;;;;;;;;;;4955614;29;20051;-74
2023/06/04 06:18:16;;;;;;;5.15;2.38;;;;;;;;;;4959116;29;20048;-74
2023/06/04 06:20:42;;;;;;;2.80;2.13;;;;;;;;;;4961662;29;20086;-74
2023/06/04 06:23:09;;;;;;;6.20;2.22;;;;;;;;;;4956064;29;20078;-74
2023/06/04 06:25:36;;;;;;;2.92;2.20;;;;;;;;;;4955500;29;20051;-74
2023/06/04 06:28:03;;;;;;;3.75;2.33;;;;;;;;;;4939394;29;20122;-74
2023/06/04 06:30:30;;;;;;;3.53;2.17;;;;;;;;;;4955190;29;20059;-74
2023/06/04 06:32:56;;;;;;;3.67;2.50;;;;;;;;;;4955011;28;20502;-74
2023/06/04 06:35:23;;;;;;;3.92;2.38;;;;;;;;;;4956627;29;20047;-73
2023/06/04 06:37:50;;;;;;;2.90;2.33;;;;;;;;;;5085586;23;20140;-84
2023/06/04 06:40:19;;;;;;;5.05;2.78;;;;;;;;;;4998788;28;20107;-84
2023/06/04 06:42:50;;;;;;;4.03;2.85;;;;;;;;;;4998531;28;20058;-85
2023/06/04 06:45:20;;;;;;;2.65;1.80;;;;;;;;;;4982868;28;20418;-85
2023/06/04 06:47:48;;;;;;;4.53;2.78;;;;;;;;;;4995111;28;20058;-84
2023/06/04 06:50:15;;;;;;;4.03;2.38;;;;;;;;;;4994955;28;20544;-84
2023/06/04 06:52:41;;;;;;;2.42;2.13;;;;;;;;;;4963003;28;20399;-84
2023/06/04 06:55:08;;;;;;;4.20;2.15;;;;;;;;;;4979367;28;20101;-84
2023/06/04 06:57:35;;;;;;;2.47;2.28;;;;;;;;;;5011430;28;20050;-84
2023/06/04 07:00:03;;;;;;;4.35;2.30;;;;;;;;;;4978454;28;20126;-84
2023/06/04 07:02:29;;;;;;;4.93;2.47;;;;;;;;;;4965725;28;20326;-84
2023/06/04 07:04:56;;;;;;;2.45;2.05;;;;;;;;;;4997207;28;20129;-84
2023/06/04 07:07:23;;;;;;;4.00;1.80;;;;;;;;;;4963454;28;20487;-84
2023/06/04 07:09:50;;;;;;;2.55;1.90;;;;;;;;;;4963725;28;20058;-84
2023/06/04 07:12:17;;;;;;;5.13;2.35;;;;;;;;;;4994642;28;20062;-85
2023/06/04 07:14:45;;;;;;;2.42;1.85;;;;;;;;;;4962815;28;20050;-84
2023/06/04 07:17:11;;;;;;;3.28;2.00;;;;;;;;;;4994801;28;20641;-84
2023/06/04 07:19:38;;;;;;;2.95;2.03;;;;;;;;;;4980003;28;20054;-85
2023/06/04 07:22:05;;;;;;;6.00;1.63;;;;;;;;;;4979394;28;20050;-84
2023/06/04 07:24:32;;;;;;;4.13;2.15;;;;;;;;;;5010820;28;20395;-82
2023/06/04 07:26:58;;;;;;;3.85;1.92;;;;;;;;;;5010375;28;20101;-82
2023/06/04 07:29:25;;;;;;;2.92;1.75;;;;;;;;;;5011518;28;20078;-82
2023/06/04 07:31:52;;;;;;;3.92;1.83;;;;;;;;;;4994711;28;20338;-82
2023/06/04 07:34:19;;;;;;;5.85;2.42;;;;;;;;;;4962159;28;20101;-82
2023/06/04 07:36:47;;;;;;;4.97;3.08;;;;;;;;;;5010001;28;20097;-82
2023/06/04 07:39:13;;;;;;;3.78;2.70;;;;;;;;;;4994132;28;20059;-82
2023/06/04 07:41:40;;;;;;;3.08;2.58;;;;;;;;;;4993637;28;20061;-82
2023/06/04 07:44:07;;;;;;;7.22;1.90;;;;;;;;;;4977598;28;20140;-83
2023/06/04 07:46:34;;;;;;;2.75;1.92;;;;;;;;;;4976418;28;20090;-82
2023/06/04 07:49:01;;;;;;;4.07;2.05;;;;;;;;;;4977321;28;20557;-82
2023/06/04 07:51:28;;;;;;;3.22;1.77;;;;;;;;;;4977079;28;20403;-83
2023/06/04 07:53:55;;;;;;;6.25;1.88;;;;;;;;;;4961266;28;20495;-82
2023/06/04 07:56:22;;;;;;;2.63;1.65;;;;;;;;;;4993250;28;20105;-82
2023/06/04 07:58:48;;;;;;;3.03;1.80;;;;;;;;;;4977094;28;20548;-82
2023/06/04 08:01:15;;;;;;;3.72;1.70;;;;;;;;;;4992949;28;20054;-82
2023/06/04 08:03:42;;;;;;;3.38;2.08;;;;;;;;;;4992981;28;20057;-83
2023/06/04 08:06:10;;;;;;;2.58;1.58;;;;;;;;;;4993205;28;20050;-82
2023/06/04 08:08:37;;;;;;;2.47;1.65;;;;;;;;;;4976631;28;20054;-82
2023/06/04 08:11:04;;;;;;;1.95;1.77;;;;;;;;;;4961985;28;20109;-83
2023/06/04 08:13:31;;;;;;;3.17;1.67;;;;;;;;;;4962935;28;20113;-82
2023/06/04 08:15:58;;;;;;;1.75;1.50;;;;;;;;;;4994742;28;20050;-82
2023/06/04 08:18:25;;;;;;;3.08;2.00;;;;;;;;;;5011213;28;20064;-82
2023/06/04 08:20:51;;;;;;;3.72;1.80;;;;;;;;;;4993060;28;20061;-82
2023/06/04 08:23:18;;;;;;;2.80;1.90;;;;;;;;;;5008656;28;20110;-82
2023/06/04 08:25:45;;;;;;;3.65;2.15;;;;;;;;;;4992383;28;20053;-83
2023/06/04 08:28:15;;;;;;;3.92;1.90;;;;;;;;;;4976923;28;20051;-82
2023/06/04 08:30:42;;;;;;;2.85;1.77;;;;;;;;;;4993201;28;20142;-82
2023/06/04 08:33:10;;;;;;;7.07;2.28;;;;;;;;;;4978836;28;20105;-82
2023/06/04 08:35:37;;;;;;;3.38;2.00;;;;;;;;;;4986555;28;20077;-83
2023/06/04 08:38:04;;;;;;;4.15;1.95;;;;;;;;;;4995989;28;20046;-82
2023/06/04 08:40:31;;;;;;;3.55;1.88;;;;;;;;;;5010769;28;20089;-82
2023/06/04 08:42:58;;;;;;;2.95;1.98;;;;;;;;;;5012567;28;20100;-83
2023/06/04 08:45:25;;;;;;;5.60;1.98;;;;;;;;;;4965456;28;20077;-82
2023/06/04 08:47:53;;;;;;;3.28;2.17;;;;;;;;;;4996977;28;20051;-83
2023/06/04 08:50:22;;;;;;;3.72;2.00;;;;;;;;;;4980019;28;20050;-83
2023/06/04 08:52:55;;;;;;;5.00;2.53;;;;;;;;;;4965069;28;20054;-83
2023/06/04 08:55:22;;;;;;;4.72;2.70;;;;;;;;;;4980749;28;20054;-82
2023/06/04 08:57:50;;;;;;;2.80;1.98;;;;;;;;;;4981343;28;20418;-83
2023/06/04 09:00:18;;;;;;;4.43;2.25;;;;;;;;;;4980767;28;20062;-82
2023/06/04 09:02:46;;;;;;;2.55;1.92;;;;;;;;;;4980971;28;20065;-82
2023/06/04 09:05:20;;;;;;;2.88;1.98;;;;;;;;;;4965403;28;20054;-82
2023/06/04 09:07:47;;;;;;;5.78;2.10;;;;;;;;;;4980968;28;20109;-82
2023/06/04 09:10:17;;;;;;;2.38;1.88;;;;;;;;;;4996286;28;20050;-82
2023/06/04 09:12:46;;;;;;;3.38;2.17;;;;;;;;;;4963133;28;20054;-82
2023/06/04 09:15:13;;;;;;;5.05;1.73;;;;;;;;;;4993734;28;20105;-82
2023/06/04 09:17:40;;;;;;;3.22;1.70;;;;;;;;;;4996917;28;20058;-82
2023/06/04 09:20:10;;;;;;;6.13;1.92;;;;;;;;;;5002614;28;20092;-82
2023/06/04 09:22:37;;;;;;;3.80;2.20;;;;;;;;;;5000470;28;20054;-83
2023/06/04 09:25:09;;;;;;;2.38;1.70;;;;;;;;;;5016168;28;20062;-82
2023/06/04 09:27:40;;;;;;;3.50;1.95;;;;;;;;;;4968437;28;20058;-82
2023/06/04 09:30:09;;;;;;;2.75;1.95;;;;;;;;;;4983042;28;20088;-82
2023/06/04 09:32:36;;;;;;;2.72;1.90;;;;;;;;;;4966716;28;20054;-82
2023/06/04 09:35:17;;;;;;;2.47;1.95;;;;;;;;;;4966299;28;20054;-82
2023/06/04 09:37:55;;;;;;;1.92;1.60;;;;;;;;;;4981383;28;20056;-82
2023/06/04 09:40:23;;;;;;;4.03;1.80;;;;;;;;;;4988300;28;20054;-82
2023/06/04 09:42:57;;;;;;;2.15;1.70;;;;;;;;;;4998184;28;20068;-82
2023/06/04 09:45:33;;;;;;;3.78;2.30;;;;;;;;;;4967168;28;20081;-83
2023/06/04 09:48:00;;;;;;;3.33;1.92;;;;;;;;;;4981251;28;20054;-82
2023/06/04 09:50:34;;;;;;;3.65;2.20;;;;;;;;;;4997411;28;20058;-82
2023/06/04 09:53:12;;;;;;;3.30;2.30;;;;;;;;;;4965516;28;20058;-82
2023/06/04 09:55:39;;;;;;;2.53;1.85;;;;;;;;;;4966892;28;20077;-82
2023/06/04 09:58:05;;;;;;;3.63;1.90;;;;;;;;;;5026949;28;20085;-84
2023/06/04 10:00:32;;;;;;;5.65;3.05;;;;;;;;;;4995904;28;20442;-83
2023/06/04 10:03:02;;;;;;;5.18;2.28;;;;;;;;;;4996055;28;20054;-82
2023/06/04 10:05:31;;;;;;;2.67;2.10;;;;;;;;;;4996552;28;20118;-82
2023/06/04 10:07:58;;;;;;;4.40;2.05;;;;;;;;;;5011006;28;20065;-83
2023/06/04 10:10:26;;;;;;;3.38;2.10;;;;;;;;;;4986948;28;20053;-82
2023/06/04 10:13:08;;;;;;;3.95;2.60;;;;;;;;;;5004748;28;20080;-82
2023/06/04 10:15:35;;;;;;;3.42;2.03;;;;;;;;;;4971356;28;20555;-83
2023/06/04 10:18:03;;;;;;;3.72;2.75;;;;;;;;;;4971541;28;20054;-82
2023/06/04 10:20:31;;;;;;;5.65;2.80;;;;;;;;;;4987124;28;20081;-83
2023/06/04 10:22:58;;;;;;;5.30;2.70;;;;;;;;;;4971326;28;20472;-82
2023/06/04 10:25:26;;;;;;;5.28;2.30;;;;;;;;;;4987754;28;20081;-82
2023/06/04 10:27:53;;;;;;;3.17;2.22;;;;;;;;;;4986943;28;20050;-83
2023/06/04 10:30:20;;;;;;;5.45;2.15;;;;;;;;;;5002706;28;20081;-82
2023/06/04 10:32:46;;;;;;;3.88;2.67;;;;;;;;;;5018557;28;20159;-82
2023/06/04 10:35:15;;;;;;;3.42;2.45;;;;;;;;;;5018796;28;20077;-82
2023/06/04 10:37:42;;;;;;;7.22;2.60;;;;;;;;;;5017889;28;20055;-82
2023/06/04 10:40:09;;;;;;;6.25;2.20;;;;;;;;;;5001379;28;20502;-82
2023/06/04 10:42:43;;;;;;;2.28;2.03;;;;;;;;;;4985871;28;20464;-82
2023/06/04 10:45:11;;;;;;;4.72;2.50;;;;;;;;;;4985774;28;20062;-82
2023/06/04 10:47:40;;;;;;;2.40;2.20;;;;;;;;;;4969076;28;20446;-82
2023/06/04 10:50:12;;;;;;;5.57;2.38;;;;;;;;;;4989565;28;20054;-82
2023/06/04 10:52:57;;;;;;;2.88;2.10;;;;;;;;;;4972104;28;20134;-82
2023/06/04 10:55:24;;;;;;;3.00;2.25;;;;;;;;;;5003224;28;20054;-82
2023/06/04 10:57:52;;;;;;;4.70;2.58;;;;;;;;;;4969883;28;20129;-82
2023/06/04 11:00:19;;;;;;;3.33;2.20;;;;;;;;;;5001950;28;20473;-82
2023/06/04 11:02:55;;;;;;;5.60;2.30;;;;;;;;;;4992000;28;20054;-83
2023/06/04 11:05:22;;;;;;;4.40;2.20;;;;;;;;;;5013839;28;20061;-84
2023/06/04 11:07:49;;;;;;;2.47;2.05;;;;;;;;;;4995057;28;20069;-84
2023/06/04 11:10:17;;;;;;;4.03;2.33;;;;;;;;;;5011429;28;20069;-84
2023/06/04 11:12:50;;;;;;;3.88;2.10;;;;;;;;;;5003071;28;20062;-82
2023/06/04 11:15:17;;;;;;;4.00;2.20;;;;;;;;;;4980340;28;20054;-82
2023/06/04 11:17:53;;;;;;;2.55;2.22;;;;;;;;;;4963215;28;20498;-82
2023/06/04 11:20:22;;;;;;;2.45;2.05;;;;;;;;;;4994667;28;20062;-83
2023/06/04 11:22:56;;;;;;;3.67;2.17;;;;;;;;;;4963433;28;20050;-83
2023/06/04 11:25:24;;;;;;;3.58;2.97;;;;;;;;;;4994532;28;20457;-82
2023/06/04 11:27:52;;;;;;;2.85;2.55;;;;;;;;;;4994605;28;20050;-82
2023/06/04 11:30:19;;;;;;;3.40;2.33;;;;;;;;;;4977813;28;20050;-82
2023/06/04 11:32:46;;;;;;;2.53;2.17;;;;;;;;;;4961676;28;20105;-83
2023/06/04 11:35:13;;;;;;;4.95;2.35;;;;;;;;;;4961745;28;20108;-83
2023/06/04 11:37:40;;;;;;;5.53;2.60;;;;;;;;;;4993431;28;20046;-82
2023/06/04 11:40:18;;;;;;;3.78;2.47;;;;;;;;;;4977583;28;20105;-83
2023/06/04 11:42:48;;;;;;;2.58;2.38;;;;;;;;;;4993903;28;20061;-82
2023/06/04 11:45:17;;;;;;;5.32;2.60;;;;;;;;;;4993924;28;20062;-83
2023/06/04 11:47:48;;;;;;;5.82;2.55;;;;;;;;;;4978240;28;20225;-82
2023/06/04 11:50:15;;;;;;;5.60;2.20;;;;;;;;;;4962094;28;20479;-83
2023/06/04 11:52:42;;;;;;;4.22;2.67;;;;;;;;;;4962020;28;20062;-82
2023/06/04 11:55:10;;;;;;;3.00;2.40;;;;;;;;;;4962186;28;20109;-83
2023/06/04 11:57:37;;;;;;;4.53;2.25;;;;;;;;;;4962281;28;20085;-82
2023/06/04 12:00:09;;;;;;;4.03;2.33;;;;;;;;;;4994381;28;20101;-83
2023/06/04 12:02:51;;;;;;;4.18;2.35;;;;;;;;;;4963525;28;20054;-83
2023/06/04 12:05:19;;;;;;;5.75;3.20;;;;;;;;;;4963401;28;20141;-83
2023/06/04 12:07:52;;;;;;;5.90;2.70;;;;;;;;;;5011242;28;20050;-83
2023/06/04 12:10:20;;;;;;;3.55;2.65;;;;;;;;;;4963941;28;20519;-83
2023/06/04 12:12:47;;;;;;;2.88;2.47;;;;;;;;;;4995241;28;20054;-83
2023/06/04 12:15:19;;;;;;;5.28;2.30;;;;;;;;;;4963393;28;20510;-83
2023/06/04 12:17:52;;;;;;;3.20;2.42;;;;;;;;;;4964856;28;20109;-82
2023/06/04 12:20:39;;;;;;;4.55;2.30;;;;;;;;;;4980934;28;20414;-83
2023/06/04 12:23:07;;;;;;;3.10;2.53;;;;;;;;;;4963498;28;20422;-83
2023/06/04 12:25:34;;;;;;;3.50;3.13;;;;;;;;;;4994820;28;20062;-83
2023/06/04 12:28:04;;;;;;;5.80;2.55;;;;;;;;;;4962991;28;20051;-82
2023/06/04 12:30:38;;;;;;;2.92;2.60;;;;;;;;;;4979402;28;20451;-83
2023/06/04 12:33:05;;;;;;;3.83;2.40;;;;;;;;;;4962686;28;20133;-82
2023/06/04 12:35:33;;;;;;;4.13;2.70;;;;;;;;;;4978550;28;20112;-82
2023/06/04 12:38:05;;;;;;;2.20;2.00;;;;;;;;;;5064863;23;20085;-73
2023/06/04 12:40:32;;;;;;;3.33;2.65;;;;;;;;;;5011251;28;20058;-72
2023/06/04 12:42:59;;;;;;;3.20;2.40;;;;;;;;;;5011334;28;20460;-72
2023/06/04 12:45:26;;;;;;;4.82;2.67;;;;;;;;;;4996656;28;20112;-73
2023/06/04 12:47:53;;;;;;;6.70;3.03;;;;;;;;;;5012150;28;20054;-73
2023/06/04 12:50:20;;;;;;;3.13;2.47;;;;;;;;;;5027105;28;20057;-72
2023/06/04 12:52:48;;;;;;;3.70;2.63;;;;;;;;;;5027293;28;20073;-73
2023/06/04 12:55:15;;;;;;;5.10;2.78;;;;;;;;;;5027457;28;20507;-72
2023/06/04 12:57:44;;;;;;;3.72;2.53;;;;;;;;;;5027171;28;20050;-73
2023/06/04 13:00:11;;;;;;;3.22;2.30;;;;;;;;;;4979125;28;20050;-73
2023/06/04 13:02:38;;;;;;;4.32;2.58;;;;;;;;;;5027272;28;20430;-73
2023/06/04 13:05:05;;;;;;;2.20;1.92;;;;;;;;;;5010795;28;20060;-73
2023/06/04 13:07:32;;;;;;;3.10;2.20;;;;;;;;;;4994717;28;20609;-73
2023/06/04 13:10:00;;;;;;;2.90;2.10;;;;;;;;;;5010517;28;20060;-73
2023/06/04 13:12:27;;;;;;;3.97;2.13;;;;;;;;;;4995184;28;20062;-73
2023/06/04 13:14:55;;;;;;;2.85;2.30;;;;;;;;;;5027040;28;20057;-73
2023/06/04 13:17:21;;;;;;;2.75;2.20;;;;;;;;;;5027502;28;20053;-76
2023/06/04 13:19:49;;;;;;;4.75;2.38;;;;;;;;;;5011166;28;20050;-75
2023/06/04 13:22:16;;;;;;;4.45;2.42;;;;;;;;;;5010827;28;20058;-75
2023/06/04 13:24:43;;;;;;;5.20;2.50;;;;;;;;;;5027202;28;20054;-75
2023/06/04 13:27:10;;;;;;;3.50;2.03;;;;;;;;;;5010826;28;20418;-75
2023/06/04 13:29:37;;;;;;;4.35;2.40;;;;;;;;;;5011136;28;20060;-75
2023/06/04 13:32:04;;;;;;;4.47;2.72;;;;;;;;;;5027110;28;20104;-75
2023/06/04 13:34:32;;;;;;;5.38;2.47;;;;;;;;;;4994886;28;20057;-75
2023/06/04 13:36:58;;;;;;;4.53;2.67;;;;;;;;;;4994379;28;20104;-76
2023/06/04 13:39:25;;;;;;;4.63;2.40;;;;;;;;;;5026894;28;20489;-75
2023/06/04 13:41:52;;;;;;;2.38;2.17;;;;;;;;;;5026749;28;20054;-75
2023/06/04 13:44:20;;;;;;;2.85;2.38;;;;;;;;;;5013527;28;20145;-75
2023/06/04 13:46:47;;;;;;;2.42;2.22;;;;;;;;;;5030785;28;20054;-75
2023/06/04 13:49:14;;;;;;;2.67;2.00;;;;;;;;;;5030569;28;20112;-75
2023/06/04 13:51:40;;;;;;;4.38;2.33;;;;;;;;;;5030602;28;20422;-76
2023/06/04 13:54:07;;;;;;;3.35;2.78;;;;;;;;;;5014212;28;20457;-75
2023/06/04 13:56:37;;;;;;;3.65;2.03;;;;;;;;;;5030125;28;20054;-75
2023/06/04 13:59:04;;;;;;;2.70;2.47;;;;;;;;;;5030463;28;20111;-76
2023/06/04 14:01:30;;;;;;;3.05;2.33;;;;;;;;;;5013877;28;20084;-75
2023/06/04 14:03:58;;;;;;;6.00;2.53;;;;;;;;;;5030497;28;20104;-75
2023/06/04 14:06:25;;;;;;;3.22;2.20;;;;;;;;;;5030489;28;20050;-75
2023/06/04 14:08:52;;;;;;;2.60;2.40;;;;;;;;;;5029868;28;20552;-76
2023/06/04 14:11:19;;;;;;;3.58;2.65;;;;;;;;;;5030010;28;20080;-75
2023/06/04 14:13:46;;;;;;;5.82;2.50;;;;;;;;;;5030215;28;20502;-75
2023/06/04 14:16:13;;;;;;;3.60;2.70;;;;;;;;;;5013816;28;20058;-75
2023/06/04 14:18:40;;;;;;;2.85;2.58;;;;;;;;;;5013737;28;20486;-75
2023/06/04 14:21:07;;;;;;;2.10;1.90;;;;;;;;;;5029804;28;20060;-76
2023/06/04 14:23:35;;;;;;;4.45;2.40;;;;;;;;;;4997811;28;20570;-75
2023/06/04 14:26:02;;;;;;;2.72;2.20;;;;;;;;;;5030072;28;20073;-75
2023/06/04 14:28:29;;;;;;;2.72;2.53;;;;;;;;;;5030101;28;20085;-75
2023/06/04 14:30:58;;;;;;;3.50;2.30;;;;;;;;;;4997423;28;20398;-75
2023/06/04 14:33:25;;;;;;;5.35;2.30;;;;;;;;;;5029827;28;20130;-75
2023/06/04 14:35:51;;;;;;;4.43;2.92;;;;;;;;;;5029703;28;20519;-73
2023/06/04 14:38:18;;;;;;;3.10;2.40;;;;;;;;;;5029842;28;20395;-73
2023/06/04 14:40:45;;;;;;;3.50;2.10;;;;;;;;;;5013543;28;20120;-73
2023/06/04 14:43:12;;;;;;;4.35;2.47;;;;;;;;;;5029806;28;20069;-73
2023/06/04 14:45:40;;;;;;;3.67;2.30;;;;;;;;;;4981423;28;20097;-73
2023/06/04 14:48:07;;;;;;;3.80;2.40;;;;;;;;;;5029640;28;20054;-73
2023/06/04 14:50:42;;;;;;;4.85;2.28;;;;;;;;;;5028359;28;20050;-73